sensor_id;sensor_type;location;lat;lon;timestamp;pressure;altitude;pressure_sealevel;temperature;humidity
61205;BME280;47068;55.780;37.520;2023-07-16T00:00:29;99646.38;;;16.63;85.11
61205;BME280;47068;55.780;37.520;2023-07-16T00:02:54;99647.59;;;16.60;84.83
61205;BME280;47068;55.780;37.520;2023-07-16T00:05:19;99649.03;;;16.56;85.12
61205;BME280;47068;55.780;37.520;2023-07-16T00:07:45;99646.53;;;16.54;85.36
61205;BME280;47068;55.780;37.520;2023-07-16T00:10:10;99653.75;;;16.54;85.73
61205;BME280;47068;55.780;37.520;2023-07-16T00:12:35;99655.41;;;16.55;85.62
61205;BME280;47068;55.780;37.520;2023-07-16T00:15:01;99650.69;;;16.57;85.50
61205;BME280;47068;55.780;37.520;2023-07-16T00:17:26;99658.75;;;16.57;85.82
61205;BME280;47068;55.780;37.520;2023-07-16T00:19:51;99652.53;;;16.57;85.65
61205;BME280;47068;55.780;37.520;2023-07-16T00:22:16;99654.19;;;16.58;85.22
61205;BME280;47068;55.780;37.520;2023-07-16T00:24:42;99657.91;;;16.57;85.37
61205;BME280;47068;55.780;37.520;2023-07-16T00:27:07;99661.03;;;16.60;85.26
61205;BME280;47068;55.780;37.520;2023-07-16T00:29:32;99656.69;;;16.59;85.05
61205;BME280;47068;55.780;37.520;2023-07-16T00:31:58;99657.31;;;16.61;85.25
61205;BME280;47068;55.780;37.520;2023-07-16T00:34:23;99658.16;;;16.62;84.93
61205;BME280;47068;55.780;37.520;2023-07-16T00:36:48;99657.13;;;16.63;84.78
61205;BME280;47068;55.780;37.520;2023-07-16T00:39:14;99663.13;;;16.65;84.62
61205;BME280;47068;55.780;37.520;2023-07-16T00:41:39;99663.72;;;16.67;84.66
61205;BME280;47068;55.780;37.520;2023-07-16T00:44:05;99660.44;;;16.65;84.28
61205;BME280;47068;55.780;37.520;2023-07-16T00:46:30;99661.28;;;16.65;84.22
61205;BME280;47068;55.780;37.520;2023-07-16T00:48:55;99661.28;;;16.65;84.53
61205;BME280;47068;55.780;37.520;2023-07-16T00:51:21;99663.72;;;16.67;84.28
61205;BME280;47068;55.780;37.520;2023-07-16T00:53:50;99664.56;;;16.67;84.19
61205;BME280;47068;55.780;37.520;2023-07-16T00:56:16;99663.78;;;16.73;84.06
61205;BME280;47068;55.780;37.520;2023-07-16T00:58:42;99669.16;;;16.73;83.83
61205;BME280;47068;55.780;37.520;2023-07-16T01:01:08;99665.22;;;16.76;83.72
61205;BME280;47068;55.780;37.520;2023-07-16T01:03:33;99668.31;;;16.79;83.64
61205;BME280;47068;55.780;37.520;2023-07-16T01:08:29;99667.06;;;16.82;83.20
61205;BME280;47068;55.780;37.520;2023-07-16T01:10:55;99672.63;;;16.80;82.85
61205;BME280;47068;55.780;37.520;2023-07-16T01:13:21;99674.53;;;16.80;83.05
61205;BME280;47068;55.780;37.520;2023-07-16T01:15:46;99673.47;;;16.81;82.65
61205;BME280;47068;55.780;37.520;2023-07-16T01:18:11;99677.41;;;16.78;82.60
61205;BME280;47068;55.780;37.520;2023-07-16T01:20:37;99685.66;;;16.77;82.51
61205;BME280;47068;55.780;37.520;2023-07-16T01:23:12;99682.78;;;16.78;82.49
61205;BME280;47068;55.780;37.520;2023-07-16T01:28:27;99686.28;;;16.72;82.34
61205;BME280;47068;55.780;37.520;2023-07-16T01:31:00;99688.16;;;16.72;82.41
61205;BME280;47068;55.780;37.520;2023-07-16T01:33:28;99684.63;;;16.71;82.26
61205;BME280;47068;55.780;37.520;2023-07-16T01:35:54;99680.69;;;16.67;82.49
61205;BME280;47068;55.780;37.520;2023-07-16T01:38:20;99686.69;;;16.69;82.54
61205;BME280;47068;55.780;37.520;2023-07-16T01:40:46;99692.06;;;16.69;82.67
61205;BME280;47068;55.780;37.520;2023-07-16T01:43:12;99687.50;;;16.70;82.59
61205;BME280;47068;55.780;37.520;2023-07-16T01:45:37;99696.41;;;16.70;82.77
61205;BME280;47068;55.780;37.520;2023-07-16T01:50:28;99692.06;;;16.76;82.57
61205;BME280;47068;55.780;37.520;2023-07-16T01:52:53;99695.19;;;16.79;82.95
61205;BME280;47068;55.780;37.520;2023-07-16T01:55:19;99701.81;;;16.83;82.99
61205;BME280;47068;55.780;37.520;2023-07-16T01:57:44;99692.72;;;16.91;82.42
61205;BME280;47068;55.780;37.520;2023-07-16T02:00:10;99705.53;;;16.96;82.43
61205;BME280;47068;55.780;37.520;2023-07-16T02:02:35;99709.06;;;17.03;82.21
61205;BME280;47068;55.780;37.520;2023-07-16T02:05:00;99699.56;;;17.07;82.16
61205;BME280;47068;55.780;37.520;2023-07-16T02:07:26;99689.41;;;17.09;81.99
61205;BME280;47068;55.780;37.520;2023-07-16T02:09:51;99699.13;;;17.10;81.98
61205;BME280;47068;55.780;37.520;2023-07-16T02:12:16;99691.50;;;17.13;82.10
61205;BME280;47068;55.780;37.520;2023-07-16T02:14:42;99692.34;;;17.14;82.02
61205;BME280;47068;55.780;37.520;2023-07-16T02:17:07;99693.38;;;17.19;81.69
61205;BME280;47068;55.780;37.520;2023-07-16T02:19:32;99700.19;;;17.22;81.63
61205;BME280;47068;55.780;37.520;2023-07-16T02:21:58;99703.28;;;17.25;81.97
61205;BME280;47068;55.780;37.520;2023-07-16T02:24:23;99700.59;;;17.25;81.80
61205;BME280;47068;55.780;37.520;2023-07-16T02:26:48;99707.44;;;17.28;81.45
61205;BME280;47068;55.780;37.520;2023-07-16T02:29:14;99707.22;;;17.29;81.63
61205;BME280;47068;55.780;37.520;2023-07-16T02:31:39;99702.66;;;17.30;81.43
61205;BME280;47068;55.780;37.520;2023-07-16T02:34:04;99700.81;;;17.30;81.64
61205;BME280;47068;55.780;37.520;2023-07-16T02:36:29;99710.31;;;17.33;81.40
61205;BME280;47068;55.780;37.520;2023-07-16T02:38:55;99709.28;;;17.34;81.34
61205;BME280;47068;55.780;37.520;2023-07-16T02:41:20;99708.88;;;17.37;81.06
61205;BME280;47068;55.780;37.520;2023-07-16T02:43:45;99705.97;;;17.39;81.25
61205;BME280;47068;55.780;37.520;2023-07-16T02:46:11;99708.47;;;17.40;81.00
61205;BME280;47068;55.780;37.520;2023-07-16T02:48:36;99716.72;;;17.45;81.02
61205;BME280;47068;55.780;37.520;2023-07-16T02:51:02;99708.84;;;17.50;80.85
61205;BME280;47068;55.780;37.520;2023-07-16T02:53:27;99712.16;;;17.59;80.16
61205;BME280;47068;55.780;37.520;2023-07-16T02:55:53;99715.91;;;17.64;80.30
61205;BME280;47068;55.780;37.520;2023-07-16T02:58:18;99717.19;;;17.62;79.96
61205;BME280;47068;55.780;37.520;2023-07-16T03:00:43;99718.84;;;17.63;80.19
61205;BME280;47068;55.780;37.520;2023-07-16T03:03:08;99718.00;;;17.62;80.18
61205;BME280;47068;55.780;37.520;2023-07-16T03:05:34;99723.38;;;17.69;80.08
61205;BME280;47068;55.780;37.520;2023-07-16T03:07:59;99724.81;;;17.71;79.81
61205;BME280;47068;55.780;37.520;2023-07-16T03:10:24;99731.44;;;17.76;80.00
61205;BME280;47068;55.780;37.520;2023-07-16T03:12:52;99738.03;;;17.80;79.41
61205;BME280;47068;55.780;37.520;2023-07-16T03:15:17;99731.63;;;17.81;79.40
61205;BME280;47068;55.780;37.520;2023-07-16T03:17:42;99734.13;;;17.82;79.28
61205;BME280;47068;55.780;37.520;2023-07-16T03:20:08;99734.94;;;17.83;78.96
61205;BME280;47068;55.780;37.520;2023-07-16T03:22:33;99737.19;;;17.86;79.27
61205;BME280;47068;55.780;37.520;2023-07-16T03:24:58;99733.66;;;17.92;79.01
61205;BME280;47068;55.780;37.520;2023-07-16T03:27:24;99738.63;;;17.95;78.48
61205;BME280;47068;55.780;37.520;2023-07-16T03:29:49;99734.72;;;17.97;78.12
61205;BME280;47068;55.780;37.520;2023-07-16T03:32:14;99741.53;;;17.93;78.22
61205;BME280;47068;55.780;37.520;2023-07-16T03:34:40;99732.63;;;17.93;78.39
61205;BME280;47068;55.780;37.520;2023-07-16T03:37:05;99742.16;;;17.95;78.11
61205;BME280;47068;55.780;37.520;2023-07-16T03:39:30;99739.47;;;17.95;78.09
61205;BME280;47068;55.780;37.520;2023-07-16T03:41:56;99734.09;;;17.95;78.07
61205;BME280;47068;55.780;37.520;2023-07-16T03:44:21;99745.06;;;17.94;78.15
61205;BME280;47068;55.780;37.520;2023-07-16T03:46:46;99748.97;;;17.98;77.60
61205;BME280;47068;55.780;37.520;2023-07-16T03:49:12;99748.56;;;18.01;77.48
61205;BME280;47068;55.780;37.520;2023-07-16T03:51:37;99746.06;;;18.06;77.80
61205;BME280;47068;55.780;37.520;2023-07-16T03:54:02;99745.66;;;18.09;77.23
61205;BME280;47068;55.780;37.520;2023-07-16T03:56:28;99752.50;;;18.12;77.19
61205;BME280;47068;55.780;37.520;2023-07-16T03:58:53;99753.91;;;18.14;77.51
61205;BME280;47068;55.780;37.520;2023-07-16T04:01:18;99753.06;;;18.20;77.14
61205;BME280;47068;55.780;37.520;2023-07-16T04:03:43;99747.44;;;18.28;77.03
61205;BME280;47068;55.780;37.520;2023-07-16T04:06:09;99747.44;;;18.35;76.91
61205;BME280;47068;55.780;37.520;2023-07-16T04:08:35;99747.22;;;18.36;76.72
61205;BME280;47068;55.780;37.520;2023-07-16T04:11:00;99754.84;;;18.39;76.53
61205;BME280;47068;55.780;37.520;2023-07-16T04:13:26;99766.88;;;18.43;76.07
61205;BME280;47068;55.780;37.520;2023-07-16T04:15:51;99750.06;;;18.48;75.72
61205;BME280;47068;55.780;37.520;2023-07-16T04:18:18;99750.47;;;18.52;75.89
61205;BME280;47068;55.780;37.520;2023-07-16T04:20:43;99762.91;;;18.53;75.62
61205;BME280;47068;55.780;37.520;2023-07-16T04:23:08;99757.94;;;18.56;75.68
61205;BME280;47068;55.780;37.520;2023-07-16T04:25:34;99757.75;;;18.58;76.16
61205;BME280;47068;55.780;37.520;2023-07-16T04:27:59;99765.38;;;18.61;75.88
61205;BME280;47068;55.780;37.520;2023-07-16T04:30:24;99766.00;;;18.63;75.25
61205;BME280;47068;55.780;37.520;2023-07-16T04:32:50;99763.75;;;18.60;75.49
61205;BME280;47068;55.780;37.520;2023-07-16T04:35:15;99764.53;;;18.60;75.61
61205;BME280;47068;55.780;37.520;2023-07-16T04:37:40;99764.78;;;18.59;75.82
61205;BME280;47068;55.780;37.520;2023-07-16T04:40:07;99762.09;;;18.59;75.48
61205;BME280;47068;55.780;37.520;2023-07-16T04:42:32;99775.31;;;18.54;75.37
61205;BME280;47068;55.780;37.520;2023-07-16T04:44:57;99771.63;;;18.48;75.89
61205;BME280;47068;55.780;37.520;2023-07-16T04:47:23;99770.19;;;18.45;75.74
61205;BME280;47068;55.780;37.520;2023-07-16T04:49:48;99769.75;;;18.48;76.06
61205;BME280;47068;55.780;37.520;2023-07-16T04:52:13;99770.16;;;18.52;75.84
61205;BME280;47068;55.780;37.520;2023-07-16T04:54:39;99765.38;;;18.54;76.20
61205;BME280;47068;55.780;37.520;2023-07-16T04:57:05;99763.50;;;18.55;76.14
61205;BME280;47068;55.780;37.520;2023-07-16T04:59:31;99763.50;;;18.55;75.53
61205;BME280;47068;55.780;37.520;2023-07-16T05:01:56;99760.63;;;18.56;75.61
61205;BME280;47068;55.780;37.520;2023-07-16T05:04:22;99763.47;;;18.68;75.38
61205;BME280;47068;55.780;37.520;2023-07-16T05:06:47;99759.34;;;18.72;75.02
61205;BME280;47068;55.780;37.520;2023-07-16T05:09:12;99768.22;;;18.79;75.10
61205;BME280;47068;55.780;37.520;2023-07-16T05:11:37;99759.47;;;18.83;75.06
61205;BME280;47068;55.780;37.520;2023-07-16T05:14:03;99754.88;;;18.91;74.94
61205;BME280;47068;55.780;37.520;2023-07-16T05:16:28;99772.44;;;19.00;74.14
61205;BME280;47068;55.780;37.520;2023-07-16T05:18:53;99776.16;;;19.05;74.17
61205;BME280;47068;55.780;37.520;2023-07-16T05:21:19;99769.91;;;19.05;73.94
61205;BME280;47068;55.780;37.520;2023-07-16T05:23:44;99767.22;;;19.05;74.13
61205;BME280;47068;55.780;37.520;2023-07-16T05:26:09;99772.63;;;19.05;74.52
61205;BME280;47068;55.780;37.520;2023-07-16T05:28:35;99769.25;;;19.09;74.29
61205;BME280;47068;55.780;37.520;2023-07-16T05:31:02;99775.94;;;19.07;74.29
61205;BME280;47068;55.780;37.520;2023-07-16T05:33:27;99772.63;;;19.05;74.05
61205;BME280;47068;55.780;37.520;2023-07-16T05:35:53;99769.72;;;19.06;74.08
61205;BME280;47068;55.780;37.520;2023-07-16T05:38:18;99782.75;;;19.09;73.83
61205;BME280;47068;55.780;37.520;2023-07-16T05:40:43;99777.34;;;19.09;74.09
61205;BME280;47068;55.780;37.520;2023-07-16T05:43:08;99779.78;;;19.17;74.20
61205;BME280;47068;55.780;37.520;2023-07-16T05:45:34;99779.53;;;19.25;73.99
61205;BME280;47068;55.780;37.520;2023-07-16T05:47:59;99782.41;;;19.31;73.57
61205;BME280;47068;55.780;37.520;2023-07-16T05:50:25;99779.44;;;19.39;73.44
61205;BME280;47068;55.780;37.520;2023-07-16T05:52:50;99782.91;;;19.46;73.14
61205;BME280;47068;55.780;37.520;2023-07-16T05:55:15;99778.94;;;19.55;72.81
61205;BME280;47068;55.780;37.520;2023-07-16T05:57:41;99786.59;;;19.58;72.60
61205;BME280;47068;55.780;37.520;2023-07-16T06:00:06;99781.81;;;19.60;72.45
61205;BME280;47068;55.780;37.520;2023-07-16T06:02:32;99777.78;;;19.69;72.27
61205;BME280;47068;55.780;37.520;2023-07-16T06:04:57;99779.56;;;20.00;71.47
61205;BME280;47068;55.780;37.520;2023-07-16T06:07:22;99784.75;;;20.01;71.14
61205;BME280;47068;55.780;37.520;2023-07-16T06:09:48;99789.09;;;20.02;70.92
61205;BME280;47068;55.780;37.520;2023-07-16T06:12:13;99786.41;;;20.02;70.84
61205;BME280;47068;55.780;37.520;2023-07-16T06:14:39;99791.81;;;20.02;70.81
61205;BME280;47068;55.780;37.520;2023-07-16T06:17:04;99787.09;;;19.98;70.84
61205;BME280;47068;55.780;37.520;2023-07-16T06:19:30;99785.25;;;19.92;70.96
61205;BME280;47068;55.780;37.520;2023-07-16T06:21:55;99785.97;;;19.81;71.49
61205;BME280;47068;55.780;37.520;2023-07-16T06:24:21;99793.72;;;19.77;71.62
61205;BME280;47068;55.780;37.520;2023-07-16T06:26:46;99786.38;;;19.84;71.38
61205;BME280;47068;55.780;37.520;2023-07-16T06:29:13;99786.53;;;19.89;71.65
61205;BME280;47068;55.780;37.520;2023-07-16T06:31:38;99788.81;;;20.11;70.89
61205;BME280;47068;55.780;37.520;2023-07-16T06:34:03;99795.06;;;20.11;71.02
61205;BME280;47068;55.780;37.520;2023-07-16T06:36:29;99790.00;;;20.15;71.02
61205;BME280;47068;55.780;37.520;2023-07-16T06:38:54;99794.56;;;20.39;70.49
61205;BME280;47068;55.780;37.520;2023-07-16T06:41:19;99797.78;;;20.48;70.07
61205;BME280;47068;55.780;37.520;2023-07-16T06:43:45;99781.94;;;20.69;69.41
61205;BME280;47068;55.780;37.520;2023-07-16T06:46:10;99792.25;;;20.91;68.75
61205;BME280;47068;55.780;37.520;2023-07-16T06:48:35;99790.38;;;20.91;68.16
61205;BME280;47068;55.780;37.520;2023-07-16T06:51:01;99787.38;;;20.99;68.42
61205;BME280;47068;55.780;37.520;2023-07-16T06:53:26;99789.66;;;21.14;67.87
61205;BME280;47068;55.780;37.520;2023-07-16T06:55:51;99792.25;;;21.09;68.16
61205;BME280;47068;55.780;37.520;2023-07-16T06:58:17;99792.44;;;22.25;65.26
61205;BME280;47068;55.780;37.520;2023-07-16T07:00:42;99798.44;;;22.16;64.91
61205;BME280;47068;55.780;37.520;2023-07-16T07:03:07;99801.22;;;21.86;64.65
61205;BME280;47068;55.780;37.520;2023-07-16T07:05:33;99798.63;;;21.56;64.93
61205;BME280;47068;55.780;37.520;2023-07-16T07:08:01;99792.81;;;21.29;66.11
61205;BME280;47068;55.780;37.520;2023-07-16T07:10:26;99797.00;;;21.25;66.73
61205;BME280;47068;55.780;37.520;2023-07-16T07:12:51;99794.44;;;21.30;66.29
61205;BME280;47068;55.780;37.520;2023-07-16T07:15:17;99798.41;;;21.69;65.23
61205;BME280;47068;55.780;37.520;2023-07-16T07:17:42;99803.44;;;21.54;64.88
61205;BME280;47068;55.780;37.520;2023-07-16T07:20:08;99796.41;;;21.23;65.42
61205;BME280;47068;55.780;37.520;2023-07-16T07:22:33;99797.63;;;21.27;66.05
61205;BME280;47068;55.780;37.520;2023-07-16T07:24:58;99802.28;;;21.61;65.51
61205;BME280;47068;55.780;37.520;2023-07-16T07:27:24;99796.09;;;21.96;64.70
61205;BME280;47068;55.780;37.520;2023-07-16T07:29:49;99802.78;;;22.52;62.99
61205;BME280;47068;55.780;37.520;2023-07-16T07:32:18;99802.63;;;22.58;62.14
61205;BME280;47068;55.780;37.520;2023-07-16T07:34:44;99805.19;;;22.76;60.30
61205;BME280;47068;55.780;37.520;2023-07-16T07:37:09;99800.88;;;22.40;60.86
61205;BME280;47068;55.780;37.520;2023-07-16T07:39:34;99799.53;;;22.26;62.04
61205;BME280;47068;55.780;37.520;2023-07-16T07:42:00;99802.31;;;22.20;61.83
61205;BME280;47068;55.780;37.520;2023-07-16T07:44:25;99794.81;;;22.10;62.23
61205;BME280;47068;55.780;37.520;2023-07-16T07:46:50;99795.25;;;22.30;62.68
61205;BME280;47068;55.780;37.520;2023-07-16T07:49:15;99795.97;;;22.37;60.83
61205;BME280;47068;55.780;37.520;2023-07-16T07:51:41;99792.19;;;22.38;61.08
61205;BME280;47068;55.780;37.520;2023-07-16T07:54:06;99792.78;;;22.92;60.23
61205;BME280;47068;55.780;37.520;2023-07-16T07:56:31;99796.78;;;22.90;59.61
61205;BME280;47068;55.780;37.520;2023-07-16T07:58:57;99795.69;;;22.74;59.03
61205;BME280;47068;55.780;37.520;2023-07-16T08:01:22;99791.94;;;22.52;59.92
61205;BME280;47068;55.780;37.520;2023-07-16T08:03:47;99795.25;;;22.30;60.57
61205;BME280;47068;55.780;37.520;2023-07-16T08:06:12;99793.53;;;22.13;61.72
61205;BME280;47068;55.780;37.520;2023-07-16T08:08:38;99794.81;;;22.10;62.07
61205;BME280;47068;55.780;37.520;2023-07-16T08:11:03;99799.28;;;22.16;62.07
61205;BME280;47068;55.780;37.520;2023-07-16T08:13:29;99791.38;;;22.15;60.95
61205;BME280;47068;55.780;37.520;2023-07-16T08:15:54;99787.41;;;22.06;60.44
61205;BME280;47068;55.780;37.520;2023-07-16T08:18:19;99791.03;;;22.23;60.59
61205;BME280;47068;55.780;37.520;2023-07-16T08:20:46;99791.09;;;22.51;59.82
61205;BME280;47068;55.780;37.520;2023-07-16T08:23:11;99793.63;;;22.69;59.31
61205;BME280;47068;55.780;37.520;2023-07-16T08:25:37;99793.50;;;23.61;56.25
61205;BME280;47068;55.780;37.520;2023-07-16T08:28:02;99783.97;;;24.14;55.67
61205;BME280;47068;55.780;37.520;2023-07-16T08:30:28;99788.13;;;24.33;54.60
61205;BME280;47068;55.780;37.520;2023-07-16T08:32:53;99787.78;;;24.29;53.34
61205;BME280;47068;55.780;37.520;2023-07-16T08:35:18;99777.19;;;23.94;54.90
61205;BME280;47068;55.780;37.520;2023-07-16T08:37:45;99786.94;;;24.29;54.76
61205;BME280;47068;55.780;37.520;2023-07-16T08:40:11;99781.91;;;24.59;53.28
61205;BME280;47068;55.780;37.520;2023-07-16T08:42:37;99784.50;;;24.49;53.30
61205;BME280;47068;55.780;37.520;2023-07-16T08:45:03;99789.50;;;24.19;52.36
61205;BME280;47068;55.780;37.520;2023-07-16T08:47:31;99782.78;;;24.05;53.73
61205;BME280;47068;55.780;37.520;2023-07-16T08:49:56;99769.88;;;23.62;54.39
61205;BME280;47068;55.780;37.520;2023-07-16T08:52:22;99775.25;;;23.45;54.94
61205;BME280;47068;55.780;37.520;2023-07-16T08:54:47;99777.75;;;23.46;56.23
61205;BME280;47068;55.780;37.520;2023-07-16T08:57:13;99765.91;;;23.36;55.96
61205;BME280;47068;55.780;37.520;2023-07-16T08:59:39;99765.69;;;23.54;55.90
61205;BME280;47068;55.780;37.520;2023-07-16T09:02:04;99778.09;;;23.83;56.50
61205;BME280;47068;55.780;37.520;2023-07-16T09:04:30;99773.31;;;23.90;55.42
61205;BME280;47068;55.780;37.520;2023-07-16T09:06:55;99770.19;;;23.65;53.82
61205;BME280;47068;55.780;37.520;2023-07-16T09:09:23;99779.59;;;23.58;54.35
61205;BME280;47068;55.780;37.520;2023-07-16T09:11:49;99770.28;;;23.08;55.08
61205;BME280;47068;55.780;37.520;2023-07-16T09:14:16;99769.50;;;22.96;56.32
61205;BME280;47068;55.780;37.520;2023-07-16T09:16:41;99770.78;;;23.05;56.19
61205;BME280;47068;55.780;37.520;2023-07-16T09:19:09;99769.19;;;22.93;56.10
61205;BME280;47068;55.780;37.520;2023-07-16T09:21:36;99776.69;;;22.74;56.32
61205;BME280;47068;55.780;37.520;2023-07-16T09:24:05;99771.38;;;22.67;56.56
61205;BME280;47068;55.780;37.520;2023-07-16T09:26:30;99780.34;;;22.68;56.98
61205;BME280;47068;55.780;37.520;2023-07-16T09:28:56;99772.66;;;22.65;56.66
61205;BME280;47068;55.780;37.520;2023-07-16T09:31:21;99776.06;;;22.72;57.45
61205;BME280;47068;55.780;37.520;2023-07-16T09:33:46;99771.44;;;22.84;57.06
61205;BME280;47068;55.780;37.520;2023-07-16T09:36:12;99779.50;;;23.07;57.24
61205;BME280;47068;55.780;37.520;2023-07-16T09:38:37;99770.38;;;23.13;56.01
61205;BME280;47068;55.780;37.520;2023-07-16T09:41:03;99771.97;;;23.26;56.44
61205;BME280;47068;55.780;37.520;2023-07-16T09:43:30;99767.94;;;23.29;56.11
61205;BME280;47068;55.780;37.520;2023-07-16T09:45:58;99770.81;;;23.39;56.59
61205;BME280;47068;55.780;37.520;2023-07-16T09:48:23;99769.97;;;23.50;55.83
61205;BME280;47068;55.780;37.520;2023-07-16T09:50:50;99775.06;;;23.63;54.89
61205;BME280;47068;55.780;37.520;2023-07-16T09:53:16;99776.63;;;23.59;52.54
61205;BME280;47068;55.780;37.520;2023-07-16T09:55:43;99777.28;;;23.66;54.27
61205;BME280;47068;55.780;37.520;2023-07-16T09:58:09;99775.31;;;23.78;53.16
61205;BME280;47068;55.780;37.520;2023-07-16T10:00:35;99769.63;;;23.80;53.03
61205;BME280;47068;55.780;37.520;2023-07-16T10:03:02;99770.84;;;23.72;53.73
61205;BME280;47068;55.780;37.520;2023-07-16T10:05:28;99767.16;;;23.62;54.07
61205;BME280;47068;55.780;37.520;2023-07-16T10:07:54;99770.72;;;23.62;52.52
61205;BME280;47068;55.780;37.520;2023-07-16T10:10:20;99763.19;;;23.36;51.20
61205;BME280;47068;55.780;37.520;2023-07-16T10:12:55;99758.16;;;23.28;51.61
61205;BME280;47068;55.780;37.520;2023-07-16T10:15:25;99756.72;;;23.25;51.97
61205;BME280;47068;55.780;37.520;2023-07-16T10:17:51;99762.00;;;23.32;52.58
61205;BME280;47068;55.780;37.520;2023-07-16T10:20:16;99768.84;;;23.34;53.04
61205;BME280;47068;55.780;37.520;2023-07-16T10:22:42;99773.44;;;23.34;52.71
61205;BME280;47068;55.780;37.520;2023-07-16T10:27:42;99765.47;;;23.27;52.72
61205;BME280;47068;55.780;37.520;2023-07-16T10:30:08;99766.88;;;23.30;52.97
61205;BME280;47068;55.780;37.520;2023-07-16T10:32:33;99764.72;;;23.32;53.06
61205;BME280;47068;55.780;37.520;2023-07-16T10:34:59;99766.38;;;23.16;51.41
61205;BME280;47068;55.780;37.520;2023-07-16T10:37:24;99771.50;;;23.29;52.36
61205;BME280;47068;55.780;37.520;2023-07-16T10:39:50;99768.50;;;23.31;51.41
61205;BME280;47068;55.780;37.520;2023-07-16T10:42:16;99766.38;;;23.33;51.43
61205;BME280;47068;55.780;37.520;2023-07-16T10:44:42;99767.03;;;23.40;49.52
61205;BME280;47068;55.780;37.520;2023-07-16T10:47:08;99759.47;;;23.42;50.47
61205;BME280;47068;55.780;37.520;2023-07-16T10:49:34;99758.91;;;23.40;50.52
61205;BME280;47068;55.780;37.520;2023-07-16T10:51:59;99755.50;;;23.33;49.36
61205;BME280;47068;55.780;37.520;2023-07-16T10:54:25;99748.94;;;23.29;49.29
61205;BME280;47068;55.780;37.520;2023-07-16T10:56:50;99761.53;;;23.35;49.42
61205;BME280;47068;55.780;37.520;2023-07-16T10:59:17;99758.97;;;23.45;49.30
61205;BME280;47068;55.780;37.520;2023-07-16T11:01:42;99763.31;;;23.58;49.79
61205;BME280;47068;55.780;37.520;2023-07-16T11:04:08;99763.03;;;23.76;49.34
61205;BME280;47068;55.780;37.520;2023-07-16T11:06:33;99754.25;;;23.85;49.73
61205;BME280;47068;55.780;37.520;2023-07-16T11:09:09;99762.22;;;23.75;48.23
61205;BME280;47068;55.780;37.520;2023-07-16T11:11:34;99757.69;;;23.81;49.00
61205;BME280;47068;55.780;37.520;2023-07-16T11:14:00;99750.44;;;23.86;47.45
61205;BME280;47068;55.780;37.520;2023-07-16T11:16:32;99750.91;;;24.00;47.80
61205;BME280;47068;55.780;37.520;2023-07-16T11:18:57;99751.81;;;24.06;47.80
61205;BME280;47068;55.780;37.520;2023-07-16T11:21:22;99741.22;;;23.87;47.34
61205;BME280;47068;55.780;37.520;2023-07-16T11:23:48;99748.22;;;23.83;48.31
61205;BME280;47068;55.780;37.520;2023-07-16T11:26:14;99742.03;;;23.88;48.28
61205;BME280;47068;55.780;37.520;2023-07-16T11:28:40;99745.09;;;23.91;48.96
61205;BME280;47068;55.780;37.520;2023-07-16T11:31:15;99745.00;;;23.86;47.05
61205;BME280;47068;55.780;37.520;2023-07-16T11:33:44;99744.44;;;23.84;47.32
61205;BME280;47068;55.780;37.520;2023-07-16T11:36:09;99743.50;;;23.95;48.46
61205;BME280;47068;55.780;37.520;2023-07-16T11:38:38;99746.09;;;24.07;47.41
61205;BME280;47068;55.780;37.520;2023-07-16T11:41:04;99746.44;;;24.11;48.25
61205;BME280;47068;55.780;37.520;2023-07-16T11:43:36;99750.72;;;24.07;46.83
61205;BME280;47068;55.780;37.520;2023-07-16T11:46:05;99745.72;;;23.99;44.58
61205;BME280;47068;55.780;37.520;2023-07-16T11:48:39;99741.22;;;23.87;45.80
61205;BME280;47068;55.780;37.520;2023-07-16T11:51:04;99746.34;;;23.84;46.31
61205;BME280;47068;55.780;37.520;2023-07-16T11:53:29;99751.84;;;23.89;47.20
61205;BME280;47068;55.780;37.520;2023-07-16T11:55:55;99750.91;;;24.00;47.50
61205;BME280;47068;55.780;37.520;2023-07-16T11:58:20;99762.09;;;24.04;47.78
61205;BME280;47068;55.780;37.520;2023-07-16T12:00:46;99748.94;;;23.95;47.81
61205;BME280;47068;55.780;37.520;2023-07-16T12:03:11;99752.16;;;23.92;45.31
61205;BME280;47068;55.780;37.520;2023-07-16T12:05:37;99755.03;;;23.86;46.16
61205;BME280;47068;55.780;37.520;2023-07-16T12:08:02;99752.00;;;23.82;46.78
61205;BME280;47068;55.780;37.520;2023-07-16T12:10:28;99748.63;;;23.75;47.12
61205;BME280;47068;55.780;37.520;2023-07-16T12:12:54;99753.59;;;23.78;47.83
61205;BME280;47068;55.780;37.520;2023-07-16T12:15:19;99749.34;;;23.87;48.23
61205;BME280;47068;55.780;37.520;2023-07-16T12:17:44;99734.88;;;23.99;47.85
61205;BME280;47068;55.780;37.520;2023-07-16T12:20:10;99727.66;;;24.09;48.27
61205;BME280;47068;55.780;37.520;2023-07-16T12:22:35;99730.63;;;24.24;47.33
61205;BME280;47068;55.780;37.520;2023-07-16T12:25:01;99735.28;;;24.29;47.41
61205;BME280;47068;55.780;37.520;2023-07-16T12:27:26;99726.13;;;24.35;45.86
61205;BME280;47068;55.780;37.520;2023-07-16T12:29:52;99736.88;;;24.25;44.51
61205;BME280;47068;55.780;37.520;2023-07-16T12:32:17;99725.88;;;23.98;45.18
61205;BME280;47068;55.780;37.520;2023-07-16T12:34:43;99731.50;;;23.91;46.34
61205;BME280;47068;55.780;37.520;2023-07-16T12:37:09;99728.25;;;23.94;46.40
61205;BME280;47068;55.780;37.520;2023-07-16T12:39:35;99734.22;;;23.91;47.10
61205;BME280;47068;55.780;37.520;2023-07-16T12:42:00;99741.72;;;23.84;47.44
61205;BME280;47068;55.780;37.520;2023-07-16T12:44:25;99734.28;;;23.80;47.63
61205;BME280;47068;55.780;37.520;2023-07-16T12:46:51;99736.72;;;23.76;48.10
61205;BME280;47068;55.780;37.520;2023-07-16T12:49:16;99736.06;;;23.69;47.47
61205;BME280;47068;55.780;37.520;2023-07-16T12:51:41;99739.25;;;23.66;48.23